sensor_id;sensor_type;location;lat;lon;timestamp;temperature;humidity
28297;DHT22;62078;49.366;8.172;2022-10-16T00:00:32;19.70;76.00
28297;DHT22;62078;49.366;8.172;2022-10-16T00:02:57;19.70;76.30
28297;DHT22;62078;49.366;8.172;2022-10-16T00:05:23;19.70;76.40
28297;DHT22;62078;49.366;8.172;2022-10-16T00:07:49;19.70;76.30
28297;DHT22;62078;49.366;8.172;2022-10-16T00:10:15;19.70;76.30
28297;DHT22;62078;49.366;8.172;2022-10-16T00:12:40;19.70;76.60
28297;DHT22;62078;49.366;8.172;2022-10-16T00:15:06;19.70;76.10
28297;DHT22;62078;49.366;8.172;2022-10-16T00:17:32;19.70;76.50
28297;DHT22;62078;49.366;8.172;2022-10-16T00:19:58;19.70;76.30
28297;DHT22;62078;49.366;8.172;2022-10-16T00:22:24;19.70;76.20
28297;DHT22;62078;49.366;8.172;2022-10-16T00:24:49;19.70;76.00
28297;DHT22;62078;49.366;8.172;2022-10-16T00:27:15;19.60;76.00
28297;DHT22;62078;49.366;8.172;2022-10-16T00:29:42;19.70;76.20
28297;DHT22;62078;49.366;8.172;2022-10-16T00:32:08;19.70;76.50
28297;DHT22;62078;49.366;8.172;2022-10-16T00:34:34;19.60;76.20
28297;DHT22;62078;49.366;8.172;2022-10-16T00:36:59;19.70;76.00
28297;DHT22;62078;49.366;8.172;2022-10-16T00:39:25;19.60;76.20
28297;DHT22;62078;49.366;8.172;2022-10-16T00:41:51;19.70;76.10
28297;DHT22;62078;49.366;8.172;2022-10-16T00:47:43;19.60;76.10
28297;DHT22;62078;49.366;8.172;2022-10-16T00:50:30;19.70;76.00
28297;DHT22;62078;49.366;8.172;2022-10-16T00:52:57;19.60;75.90
28297;DHT22;62078;49.366;8.172;2022-10-16T00:55:24;19.60;76.20
28297;DHT22;62078;49.366;8.172;2022-10-16T00:57:51;19.60;75.90
28297;DHT22;62078;49.366;8.172;2022-10-16T01:00:24;19.60;76.40
28297;DHT22;62078;49.366;8.172;2022-10-16T01:02:55;19.60;76.00
28297;DHT22;62078;49.366;8.172;2022-10-16T01:05:22;19.60;75.90
28297;DHT22;62078;49.366;8.172;2022-10-16T01:08:11;19.60;75.80
28297;DHT22;62078;49.366;8.172;2022-10-16T01:11:08;19.60;75.90
28297;DHT22;62078;49.366;8.172;2022-10-16T01:13:43;19.60;76.00
28297;DHT22;62078;49.366;8.172;2022-10-16T01:16:19;19.60;75.80
28297;DHT22;62078;49.366;8.172;2022-10-16T01:19:20;19.60;75.80
28297;DHT22;62078;49.366;8.172;2022-10-16T01:21:52;19.60;75.90
28297;DHT22;62078;49.366;8.172;2022-10-16T01:24:37;19.60;75.90
28297;DHT22;62078;49.366;8.172;2022-10-16T01:27:26;19.60;76.00
28297;DHT22;62078;49.366;8.172;2022-10-16T01:30:01;19.60;75.90
28297;DHT22;62078;49.366;8.172;2022-10-16T01:32:38;19.60;75.80
28297;DHT22;62078;49.366;8.172;2022-10-16T01:37:36;19.60;75.80
28297;DHT22;62078;49.366;8.172;2022-10-16T01:40:08;19.60;75.80
28297;DHT22;62078;49.366;8.172;2022-10-16T01:42:38;19.60;75.70
28297;DHT22;62078;49.366;8.172;2022-10-16T01:45:05;19.60;75.80
28297;DHT22;62078;49.366;8.172;2022-10-16T01:47:35;19.60;75.70
28297;DHT22;62078;49.366;8.172;2022-10-16T01:50:04;19.60;75.80
28297;DHT22;62078;49.366;8.172;2022-10-16T01:52:32;19.60;75.80
28297;DHT22;62078;49.366;8.172;2022-10-16T01:55:02;19.60;75.70
28297;DHT22;62078;49.366;8.172;2022-10-16T01:57:30;19.60;75.70
28297;DHT22;62078;49.366;8.172;2022-10-16T02:00:00;19.60;75.70
28297;DHT22;62078;49.366;8.172;2022-10-16T02:02:29;19.60;75.80
28297;DHT22;62078;49.366;8.172;2022-10-16T02:05:00;19.60;75.80
28297;DHT22;62078;49.366;8.172;2022-10-16T02:07:28;19.60;75.80
28297;DHT22;62078;49.366;8.172;2022-10-16T02:09:54;19.60;76.10
28297;DHT22;62078;49.366;8.172;2022-10-16T02:12:32;19.60;75.80
28297;DHT22;62078;49.366;8.172;2022-10-16T02:14:59;19.60;76.60
28297;DHT22;62078;49.366;8.172;2022-10-16T02:17:25;19.50;75.80
28297;DHT22;62078;49.366;8.172;2022-10-16T02:19:53;19.60;75.80
28297;DHT22;62078;49.366;8.172;2022-10-16T02:22:28;19.50;75.80
28297;DHT22;62078;49.366;8.172;2022-10-16T02:30:45;19.50;75.90
28297;DHT22;62078;49.366;8.172;2022-10-16T02:33:14;19.60;75.70
28297;DHT22;62078;49.366;8.172;2022-10-16T02:35:42;19.60;75.80
28297;DHT22;62078;49.366;8.172;2022-10-16T02:38:09;19.50;76.00
28297;DHT22;62078;49.366;8.172;2022-10-16T02:40:35;19.50;75.90
28297;DHT22;62078;49.366;8.172;2022-10-16T02:43:04;19.60;75.90
28297;DHT22;62078;49.366;8.172;2022-10-16T02:45:30;19.50;75.80
28297;DHT22;62078;49.366;8.172;2022-10-16T02:47:56;19.50;75.90
28297;DHT22;62078;49.366;8.172;2022-10-16T02:50:22;19.50;75.70
28297;DHT22;62078;49.366;8.172;2022-10-16T02:52:47;19.50;76.40
28297;DHT22;62078;49.366;8.172;2022-10-16T02:55:13;19.50;75.70
28297;DHT22;62078;49.366;8.172;2022-10-16T02:57:39;19.60;75.70
28297;DHT22;62078;49.366;8.172;2022-10-16T03:00:07;19.50;75.60
28297;DHT22;62078;49.366;8.172;2022-10-16T03:02:34;19.50;75.70
28297;DHT22;62078;49.366;8.172;2022-10-16T03:04:59;19.50;75.90
28297;DHT22;62078;49.366;8.172;2022-10-16T03:07:25;19.50;75.50
28297;DHT22;62078;49.366;8.172;2022-10-16T03:09:51;19.50;75.50
28297;DHT22;62078;49.366;8.172;2022-10-16T03:12:16;19.50;75.50
28297;DHT22;62078;49.366;8.172;2022-10-16T03:14:42;19.50;75.40
28297;DHT22;62078;49.366;8.172;2022-10-16T03:17:07;19.50;75.50
28297;DHT22;62078;49.366;8.172;2022-10-16T03:19:33;19.50;75.50
28297;DHT22;62078;49.366;8.172;2022-10-16T03:22:00;19.50;75.50
28297;DHT22;62078;49.366;8.172;2022-10-16T03:24:25;19.50;75.50
28297;DHT22;62078;49.366;8.172;2022-10-16T03:26:51;19.50;75.50
28297;DHT22;62078;49.366;8.172;2022-10-16T03:29:16;19.50;75.50
28297;DHT22;62078;49.366;8.172;2022-10-16T03:31:42;19.50;75.50
28297;DHT22;62078;49.366;8.172;2022-10-16T03:34:08;19.50;75.50
28297;DHT22;62078;49.366;8.172;2022-10-16T03:36:34;19.40;75.50
28297;DHT22;62078;49.366;8.172;2022-10-16T03:39:00;19.50;75.60
28297;DHT22;62078;49.366;8.172;2022-10-16T03:41:25;19.50;75.50
28297;DHT22;62078;49.366;8.172;2022-10-16T03:43:51;19.50;75.50
28297;DHT22;62078;49.366;8.172;2022-10-16T03:46:17;19.50;75.80
28297;DHT22;62078;49.366;8.172;2022-10-16T03:48:42;19.50;75.90
28297;DHT22;62078;49.366;8.172;2022-10-16T03:51:08;19.50;75.70
28297;DHT22;62078;49.366;8.172;2022-10-16T03:53:34;19.50;75.70
28297;DHT22;62078;49.366;8.172;2022-10-16T03:55:59;19.50;75.70
28297;DHT22;62078;49.366;8.172;2022-10-16T03:58:25;19.50;75.70
28297;DHT22;62078;49.366;8.172;2022-10-16T04:00:51;19.50;75.70
28297;DHT22;62078;49.366;8.172;2022-10-16T04:03:17;19.50;75.50
28297;DHT22;62078;49.366;8.172;2022-10-16T04:05:44;19.50;75.60
28297;DHT22;62078;49.366;8.172;2022-10-16T04:08:10;19.50;75.60
28297;DHT22;62078;49.366;8.172;2022-10-16T04:10:36;19.50;75.50
28297;DHT22;62078;49.366;8.172;2022-10-16T04:13:01;19.50;75.50
28297;DHT22;62078;49.366;8.172;2022-10-16T04:15:27;19.50;76.30
28297;DHT22;62078;49.366;8.172;2022-10-16T04:17:52;19.50;75.50
28297;DHT22;62078;49.366;8.172;2022-10-16T04:20:18;19.50;75.50
28297;DHT22;62078;49.366;8.172;2022-10-16T04:22:44;19.50;75.50
28297;DHT22;62078;49.366;8.172;2022-10-16T04:25:11;19.50;75.50
28297;DHT22;62078;49.366;8.172;2022-10-16T04:27:38;19.50;75.50
28297;DHT22;62078;49.366;8.172;2022-10-16T04:30:04;19.50;75.70
28297;DHT22;62078;49.366;8.172;2022-10-16T04:32:30;19.50;75.50
28297;DHT22;62078;49.366;8.172;2022-10-16T04:34:56;19.50;75.50
28297;DHT22;62078;49.366;8.172;2022-10-16T04:37:25;19.50;75.50
28297;DHT22;62078;49.366;8.172;2022-10-16T04:39:52;19.50;75.50
28297;DHT22;62078;49.366;8.172;2022-10-16T04:42:18;19.40;75.50
28297;DHT22;62078;49.366;8.172;2022-10-16T04:44:44;19.50;75.40
28297;DHT22;62078;49.366;8.172;2022-10-16T04:47:09;19.40;75.50
28297;DHT22;62078;49.366;8.172;2022-10-16T04:49:35;19.40;75.40
28297;DHT22;62078;49.366;8.172;2022-10-16T04:52:01;19.40;75.40
28297;DHT22;62078;49.366;8.172;2022-10-16T04:54:26;19.50;75.50
28297;DHT22;62078;49.366;8.172;2022-10-16T04:56:52;19.40;75.50
28297;DHT22;62078;49.366;8.172;2022-10-16T04:59:19;19.40;75.60
28297;DHT22;62078;49.366;8.172;2022-10-16T05:01:45;19.40;75.50
28297;DHT22;62078;49.366;8.172;2022-10-16T05:04:11;19.40;75.70
28297;DHT22;62078;49.366;8.172;2022-10-16T05:06:37;19.40;75.70
28297;DHT22;62078;49.366;8.172;2022-10-16T05:09:04;19.40;75.70
28297;DHT22;62078;49.366;8.172;2022-10-16T05:11:30;19.40;75.60
28297;DHT22;62078;49.366;8.172;2022-10-16T05:13:56;19.40;75.50
28297;DHT22;62078;49.366;8.172;2022-10-16T05:16:22;19.40;75.70
28297;DHT22;62078;49.366;8.172;2022-10-16T05:18:47;19.40;75.50
28297;DHT22;62078;49.366;8.172;2022-10-16T05:21:13;19.40;75.60
28297;DHT22;62078;49.366;8.172;2022-10-16T05:23:39;19.40;75.60
28297;DHT22;62078;49.366;8.172;2022-10-16T05:26:04;19.40;75.60
28297;DHT22;62078;49.366;8.172;2022-10-16T05:28:32;19.40;75.70
28297;DHT22;62078;49.366;8.172;2022-10-16T05:30:57;19.40;75.60
28297;DHT22;62078;49.366;8.172;2022-10-16T05:33:26;19.40;75.70
28297;DHT22;62078;49.366;8.172;2022-10-16T05:35:52;19.40;75.60
28297;DHT22;62078;49.366;8.172;2022-10-16T05:38:18;19.40;75.50
28297;DHT22;62078;49.366;8.172;2022-10-16T05:40:50;19.40;75.50
28297;DHT22;62078;49.366;8.172;2022-10-16T05:43:16;19.40;75.50
28297;DHT22;62078;49.366;8.172;2022-10-16T05:45:41;19.40;75.50
28297;DHT22;62078;49.366;8.172;2022-10-16T05:48:07;19.40;75.50
28297;DHT22;62078;49.366;8.172;2022-10-16T05:50:32;19.40;75.50
28297;DHT22;62078;49.366;8.172;2022-10-16T05:52:58;19.40;75.60
28297;DHT22;62078;49.366;8.172;2022-10-16T05:55:24;19.40;75.70
28297;DHT22;62078;49.366;8.172;2022-10-16T05:57:49;19.40;75.80
28297;DHT22;62078;49.366;8.172;2022-10-16T06:00:15;19.40;75.90
28297;DHT22;62078;49.366;8.172;2022-10-16T06:02:41;19.40;75.90
28297;DHT22;62078;49.366;8.172;2022-10-16T06:05:06;19.40;75.70
28297;DHT22;62078;49.366;8.172;2022-10-16T06:07:34;19.40;76.00
28297;DHT22;62078;49.366;8.172;2022-10-16T06:10:01;19.40;76.00
28297;DHT22;62078;49.366;8.172;2022-10-16T06:12:27;19.40;76.00
28297;DHT22;62078;49.366;8.172;2022-10-16T06:14:52;19.40;76.00
28297;DHT22;62078;49.366;8.172;2022-10-16T06:17:18;19.40;76.10
28297;DHT22;62078;49.366;8.172;2022-10-16T06:19:44;19.40;76.10
28297;DHT22;62078;49.366;8.172;2022-10-16T06:22:09;19.40;76.00
28297;DHT22;62078;49.366;8.172;2022-10-16T06:24:35;19.40;75.90
28297;DHT22;62078;49.366;8.172;2022-10-16T06:27:01;19.40;76.00
28297;DHT22;62078;49.366;8.172;2022-10-16T06:29:28;19.40;76.30
28297;DHT22;62078;49.366;8.172;2022-10-16T06:31:53;19.40;76.10
28297;DHT22;62078;49.366;8.172;2022-10-16T06:34:19;19.30;76.00
28297;DHT22;62078;49.366;8.172;2022-10-16T06:36:45;19.40;76.30
28297;DHT22;62078;49.366;8.172;2022-10-16T06:39:10;19.40;75.80
28297;DHT22;62078;49.366;8.172;2022-10-16T06:41:36;19.50;76.20
28297;DHT22;62078;49.366;8.172;2022-10-16T06:44:06;19.50;76.10
28297;DHT22;62078;49.366;8.172;2022-10-16T06:46:33;19.50;76.10
28297;DHT22;62078;49.366;8.172;2022-10-16T06:48:59;19.50;77.00
28297;DHT22;62078;49.366;8.172;2022-10-16T06:51:25;19.50;79.10
28297;DHT22;62078;49.366;8.172;2022-10-16T06:53:53;19.50;78.50
28297;DHT22;62078;49.366;8.172;2022-10-16T06:56:24;19.50;78.70
28297;DHT22;62078;49.366;8.172;2022-10-16T06:58:51;19.50;79.00
28297;DHT22;62078;49.366;8.172;2022-10-16T07:01:19;19.40;78.70
28297;DHT22;62078;49.366;8.172;2022-10-16T07:03:46;19.40;79.20
28297;DHT22;62078;49.366;8.172;2022-10-16T07:06:14;19.40;78.80
28297;DHT22;62078;49.366;8.172;2022-10-16T07:08:42;19.40;78.90
28297;DHT22;62078;49.366;8.172;2022-10-16T07:11:10;19.40;78.40
28297;DHT22;62078;49.366;8.172;2022-10-16T07:13:37;19.50;79.10
28297;DHT22;62078;49.366;8.172;2022-10-16T07:16:14;19.50;79.60
28297;DHT22;62078;49.366;8.172;2022-10-16T07:18:40;19.40;78.70
28297;DHT22;62078;49.366;8.172;2022-10-16T07:21:10;19.40;78.80
28297;DHT22;62078;49.366;8.172;2022-10-16T07:23:37;19.40;79.10
28297;DHT22;62078;49.366;8.172;2022-10-16T07:26:03;19.40;78.90
28297;DHT22;62078;49.366;8.172;2022-10-16T07:28:29;19.50;78.90
28297;DHT22;62078;49.366;8.172;2022-10-16T07:31:03;19.40;78.50
28297;DHT22;62078;49.366;8.172;2022-10-16T07:33:30;19.40;78.50
28297;DHT22;62078;49.366;8.172;2022-10-16T14:54:19;19.40;78.90
28297;DHT22;62078;49.366;8.172;2022-10-16T15:02:02;19.80;79.70
28297;DHT22;62078;49.366;8.172;2022-10-16T15:04:32;19.90;79.80
28297;DHT22;62078;49.366;8.172;2022-10-16T15:06:57;19.90;79.80
28297;DHT22;62078;49.366;8.172;2022-10-16T15:09:23;19.90;80.20
28297;DHT22;62078;49.366;8.172;2022-10-16T15:11:49;19.80;80.20
28297;DHT22;62078;49.366;8.172;2022-10-16T15:14:14;19.90;80.40
28297;DHT22;62078;49.366;8.172;2022-10-16T15:16:40;19.90;80.20
28297;DHT22;62078;49.366;8.172;2022-10-16T15:19:06;19.80;79.50
28297;DHT22;62078;49.366;8.172;2022-10-16T15:21:32;19.80;79.90
28297;DHT22;62078;49.366;8.172;2022-10-16T15:23:59;19.80;79.70
28297;DHT22;62078;49.366;8.172;2022-10-16T15:26:26;19.90;79.90
28297;DHT22;62078;49.366;8.172;2022-10-16T15:28:53;19.90;79.70
28297;DHT22;62078;49.366;8.172;2022-10-16T15:31:19;19.90;79.80
28297;DHT22;62078;49.366;8.172;2022-10-16T15:33:45;19.90;80.30
28297;DHT22;62078;49.366;8.172;2022-10-16T15:36:16;19.90;80.10
28297;DHT22;62078;49.366;8.172;2022-10-16T15:38:42;19.80;79.70
28297;DHT22;62078;49.366;8.172;2022-10-16T15:41:08;19.90;80.60
28297;DHT22;62078;49.366;8.172;2022-10-16T15:43:33;19.80;79.60
28297;DHT22;62078;49.366;8.172;2022-10-16T15:46:04;19.80;79.50
28297;DHT22;62078;49.366;8.172;2022-10-16T15:48:32;19.80;79.10
28297;DHT22;62078;49.366;8.172;2022-10-16T15:50:59;19.80;79.70
28297;DHT22;62078;49.366;8.172;2022-10-16T15:53:25;19.80;79.20
28297;DHT22;62078;49.366;8.172;2022-10-16T15:55:51;19.80;79.10
28297;DHT22;62078;49.366;8.172;2022-10-16T15:58:17;19.80;79.60
28297;DHT22;62078;49.366;8.172;2022-10-16T16:00:42;19.80;80.10
28297;DHT22;62078;49.366;8.172;2022-10-16T16:03:08;19.80;80.10
28297;DHT22;62078;49.366;8.172;2022-10-16T16:05:38;19.80;79.70
28297;DHT22;62078;49.366;8.172;2022-10-16T16:08:03;19.80;80.20
28297;DHT22;62078;49.366;8.172;2022-10-16T16:10:29;19.80;79.80
28297;DHT22;62078;49.366;8.172;2022-10-16T16:12:55;19.80;80.20
28297;DHT22;62078;49.366;8.172;2022-10-16T16:15:21;19.80;80.00
28297;DHT22;62078;49.366;8.172;2022-10-16T16:17:47;19.80;79.90
28297;DHT22;62078;49.366;8.172;2022-10-16T16:20:13;19.80;79.80
28297;DHT22;62078;49.366;8.172;2022-10-16T16:22:39;19.80;80.00
28297;DHT22;62078;49.366;8.172;2022-10-16T16:25:05;19.80;79.70
28297;DHT22;62078;49.366;8.172;2022-10-16T16:27:31;19.80;78.60
28297;DHT22;62078;49.366;8.172;2022-10-16T16:30:02;19.80;79.30
28297;DHT22;62078;49.366;8.172;2022-10-16T16:32:29;19.80;79.50
28297;DHT22;62078;49.366;8.172;2022-10-16T16:34:55;19.80;78.60
28297;DHT22;62078;49.366;8.172;2022-10-16T16:37:20;19.80;79.30
28297;DHT22;62078;49.366;8.172;2022-10-16T16:39:46;19.80;79.70
28297;DHT22;62078;49.366;8.172;2022-10-16T16:42:12;19.80;79.70
28297;DHT22;62078;49.366;8.172;2022-10-16T16:44:38;19.70;80.20
28297;DHT22;62078;49.366;8.172;2022-10-16T16:47:04;19.80;79.30
28297;DHT22;62078;49.366;8.172;2022-10-16T16:49:31;19.80;78.90
28297;DHT22;62078;49.366;8.172;2022-10-16T16:51:57;19.80;79.90
28297;DHT22;62078;49.366;8.172;2022-10-16T16:54:23;19.80;79.90
28297;DHT22;62078;49.366;8.172;2022-10-16T16:56:49;19.80;79.50
28297;DHT22;62078;49.366;8.172;2022-10-16T16:59:18;19.80;80.70
28297;DHT22;62078;49.366;8.172;2022-10-16T17:01:45;19.80;80.10
28297;DHT22;62078;49.366;8.172;2022-10-16T17:04:11;19.70;79.70
28297;DHT22;62078;49.366;8.172;2022-10-16T17:06:37;19.80;79.50
28297;DHT22;62078;49.366;8.172;2022-10-16T17:09:05;19.80;79.10
28297;DHT22;62078;49.366;8.172;2022-10-16T17:11:31;19.80;79.10
28297;DHT22;62078;49.366;8.172;2022-10-16T17:13:58;19.80;80.50
28297;DHT22;62078;49.366;8.172;2022-10-16T17:16:27;19.80;79.80
28297;DHT22;62078;49.366;8.172;2022-10-16T17:18:54;19.80;80.30
28297;DHT22;62078;49.366;8.172;2022-10-16T17:21:20;19.70;83.40
28297;DHT22;62078;49.366;8.172;2022-10-16T17:23:46;19.60;85.20
28297;DHT22;62078;49.366;8.172;2022-10-16T17:26:14;19.40;87.00
28297;DHT22;62078;49.366;8.172;2022-10-16T17:28:41;19.50;86.10
28297;DHT22;62078;49.366;8.172;2022-10-16T17:31:18;19.50;84.00
28297;DHT22;62078;49.366;8.172;2022-10-16T17:33:45;19.60;84.20
28297;DHT22;62078;49.366;8.172;2022-10-16T17:36:12;19.60;85.20
28297;DHT22;62078;49.366;8.172;2022-10-16T17:38:41;19.70;83.50
28297;DHT22;62078;49.366;8.172;2022-10-16T17:41:15;19.70;83.40
28297;DHT22;62078;49.366;8.172;2022-10-16T17:43:42;19.70;82.30
28297;DHT22;62078;49.366;8.172;2022-10-16T17:46:09;19.70;83.40
28297;DHT22;62078;49.366;8.172;2022-10-16T17:48:39;19.70;83.00
28297;DHT22;62078;49.366;8.172;2022-10-16T17:51:06;19.70;83.00
28297;DHT22;62078;49.366;8.172;2022-10-16T17:53:33;19.70;82.40
28297;DHT22;62078;49.366;8.172;2022-10-16T17:56:06;19.70;81.70
28297;DHT22;62078;49.366;8.172;2022-10-16T17:58:32;19.70;81.60
28297;DHT22;62078;49.366;8.172;2022-10-16T18:00:59;19.70;81.20
28297;DHT22;62078;49.366;8.172;2022-10-16T18:03:25;19.80;81.20
28297;DHT22;62078;49.366;8.172;2022-10-16T18:05:54;19.70;81.70
28297;DHT22;62078;49.366;8.172;2022-10-16T18:08:21;19.70;82.00
28297;DHT22;62078;49.366;8.172;2022-10-16T18:10:49;19.70;82.30
28297;DHT22;62078;49.366;8.172;2022-10-16T18:13:16;19.70;81.00
28297;DHT22;62078;49.366;8.172;2022-10-16T18:15:42;19.70;81.00
28297;DHT22;62078;49.366;8.172;2022-10-16T18:18:08;19.70;80.60
28297;DHT22;62078;49.366;8.172;2022-10-16T18:20:34;19.70;80.70
28297;DHT22;62078;49.366;8.172;2022-10-16T18:23:00;19.70;81.20
28297;DHT22;62078;49.366;8.172;2022-10-16T18:25:26;19.70;82.00
28297;DHT22;62078;49.366;8.172;2022-10-16T18:27:51;19.70;81.40
28297;DHT22;62078;49.366;8.172;2022-10-16T18:30:17;19.70;81.30
28297;DHT22;62078;49.366;8.172;2022-10-16T18:32:43;19.70;81.80
28297;DHT22;62078;49.366;8.172;2022-10-16T18:35:09;19.70;80.50
28297;DHT22;62078;49.366;8.172;2022-10-16T18:37:35;19.70;82.00
28297;DHT22;62078;49.366;8.172;2022-10-16T18:40:01;19.70;82.10
28297;DHT22;62078;49.366;8.172;2022-10-16T18:42:26;19.70;82.10
28297;DHT22;62078;49.366;8.172;2022-10-16T18:44:52;19.70;80.60
28297;DHT22;62078;49.366;8.172;2022-10-16T18:47:18;19.70;81.70
28297;DHT22;62078;49.366;8.172;2022-10-16T18:49:44;19.70;81.10
28297;DHT22;62078;49.366;8.172;2022-10-16T18:52:11;19.70;80.20
28297;DHT22;62078;49.366;8.172;2022-10-16T18:54:37;19.70;80.00
28297;DHT22;62078;49.366;8.172;2022-10-16T18:57:03;19.70;79.70
28297;DHT22;62078;49.366;8.172;2022-10-16T18:59:29;19.70;79.90
28297;DHT22;62078;49.366;8.172;2022-10-16T19:01:55;19.70;80.00
28297;DHT22;62078;49.366;8.172;2022-10-16T19:04:22;19.70;79.20
28297;DHT22;62078;49.366;8.172;2022-10-16T19:06:50;19.70;79.50
28297;DHT22;62078;49.366;8.172;2022-10-16T19:09:21;19.80;79.90
28297;DHT22;62078;49.366;8.172;2022-10-16T19:11:47;19.80;80.80
28297;DHT22;62078;49.366;8.172;2022-10-16T19:14:14;19.90;79.70
28297;DHT22;62078;49.366;8.172;2022-10-16T19:16:43;19.90;79.50
28297;DHT22;62078;49.366;8.172;2022-10-16T19:19:12;19.90;79.30
28297;DHT22;62078;49.366;8.172;2022-10-16T19:21:38;19.90;79.60
28297;DHT22;62078;49.366;8.172;2022-10-16T19:24:06;19.90;79.40
28297;DHT22;62078;49.366;8.172;2022-10-16T19:26:32;19.90;79.30
28297;DHT22;62078;49.366;8.172;2022-10-16T19:28:59;19.90;79.30
28297;DHT22;62078;49.366;8.172;2022-10-16T19:31:27;19.90;79.20
28297;DHT22;62078;49.366;8.172;2022-10-16T19:33:55;19.90;79.30
28297;DHT22;62078;49.366;8.172;2022-10-16T19:36:27;19.90;79.20
28297;DHT22;62078;49.366;8.172;2022-10-16T19:38:55;19.90;79.20
28297;DHT22;62078;49.366;8.172;2022-10-16T19:41:22;19.90;79.80
28297;DHT22;62078;49.366;8.172;2022-10-16T19:43:49;19.90;79.20
28297;DHT22;62078;49.366;8.172;2022-10-16T19:46:21;19.90;78.90
28297;DHT22;62078;49.366;8.172;2022-10-16T19:48:48;19.90;79.10
28297;DHT22;62078;49.366;8.172;2022-10-16T19:51:17;20.00;80.30
28297;DHT22;62078;49.366;8.172;2022-10-16T19:53:44;20.00;79.80
28297;DHT22;62078;49.366;8.172;2022-10-16T19:56:16;20.00;79.30
28297;DHT22;62078;49.366;8.172;2022-10-16T19:58:43;20.00;79.10
28297;DHT22;62078;49.366;8.172;2022-10-16T20:01:10;20.00;79.10
28297;DHT22;62078;49.366;8.172;2022-10-16T20:03:36;20.00;79.10
28297;DHT22;62078;49.366;8.172;2022-10-16T20:06:04;20.00;79.00
28297;DHT22;62078;49.366;8.172;2022-10-16T20:08:37;20.00;78.80
28297;DHT22;62078;49.366;8.172;2022-10-16T20:11:05;20.00;79.10
28297;DHT22;62078;49.366;8.172;2022-10-16T20:13:31;20.00;79.20
28297;DHT22;62078;49.366;8.172;2022-10-16T20:15:57;20.00;79.10
28297;DHT22;62078;49.366;8.172;2022-10-16T20:18:23;20.00;78.80
28297;DHT22;62078;49.366;8.172;2022-10-16T20:20:49;20.00;79.30
28297;DHT22;62078;49.366;8.172;2022-10-16T20:23:20;20.00;79.10
28297;DHT22;62078;49.366;8.172;2022-10-16T20:25:48;20.00;78.80
28297;DHT22;62078;49.366;8.172;2022-10-16T20:28:17;20.00;79.00
28297;DHT22;62078;49.366;8.172;2022-10-16T20:30:46;20.00;78.80
28297;DHT22;62078;49.366;8.172;2022-10-16T20:33:14;20.00;78.90
28297;DHT22;62078;49.366;8.172;2022-10-16T20:35:42;20.00;79.40
28297;DHT22;62078;49.366;8.172;2022-10-16T20:38:09;20.10;79.20
28297;DHT22;62078;49.366;8.172;2022-10-16T20:40:40;20.10;78.70
28297;DHT22;62078;49.366;8.172;2022-10-16T20:43:07;20.10;78.50
28297;DHT22;62078;49.366;8.172;2022-10-16T20:45:33;20.10;79.00
28297;DHT22;62078;49.366;8.172;2022-10-16T20:47:58;20.10;79.60
28297;DHT22;62078;49.366;8.172;2022-10-16T20:50:28;20.10;79.00
28297;DHT22;62078;49.366;8.172;2022-10-16T20:52:54;20.10;78.70
28297;DHT22;62078;49.366;8.172;2022-10-16T20:55:20;20.10;78.80
28297;DHT22;62078;49.366;8.172;2022-10-16T20:57:46;20.10;78.70
28297;DHT22;62078;49.366;8.172;2022-10-16T21:00:13;20.10;78.50
28297;DHT22;62078;49.366;8.172;2022-10-16T21:02:39;20.10;78.50
28297;DHT22;62078;49.366;8.172;2022-10-16T21:05:05;20.10;78.40
28297;DHT22;62078;49.366;8.172;2022-10-16T21:07:31;20.10;78.40
28297;DHT22;62078;49.366;8.172;2022-10-16T21:09:57;20.10;78.30
28297;DHT22;62078;49.366;8.172;2022-10-16T21:12:24;20.10;78.30
28297;DHT22;62078;49.366;8.172;2022-10-16T21:14:51;20.10;78.30
28297;DHT22;62078;49.366;8.172;2022-10-16T21:17:17;20.10;78.30
28297;DHT22;62078;49.366;8.172;2022-10-16T21:19:43;20.10;78.20
28297;DHT22;62078;49.366;8.172;2022-10-16T21:22:09;20.10;78.20
28297;DHT22;62078;49.366;8.172;2022-10-16T21:24:35;20.10;78.20
28297;DHT22;62078;49.366;8.172;2022-10-16T21:27:04;20.10;78.10
28297;DHT22;62078;49.366;8.172;2022-10-16T21:29:31;20.10;78.00
28297;DHT22;62078;49.366;8.172;2022-10-16T21:31:56;20.10;78.20
28297;DHT22;62078;49.366;8.172;2022-10-16T21:34:23;20.10;78.10
28297;DHT22;62078;49.366;8.172;2022-10-16T21:36:48;20.10;78.10
28297;DHT22;62078;49.366;8.172;2022-10-16T21:39:17;20.10;78.10
28297;DHT22;62078;49.366;8.172;2022-10-16T21:41:45;20.10;78.10
28297;DHT22;62078;49.366;8.172;2022-10-16T21:44:12;20.10;78.00
28297;DHT22;62078;49.366;8.172;2022-10-16T21:46:40;20.10;78.00
28297;DHT22;62078;49.366;8.172;2022-10-16T21:49:11;20.10;78.00
28297;DHT22;62078;49.366;8.172;2022-10-16T21:51:40;20.10;78.10
28297;DHT22;62078;49.366;8.172;2022-10-16T21:54:08;20.10;77.90
28297;DHT22;62078;49.366;8.172;2022-10-16T21:56:34;20.10;77.80
28297;DHT22;62078;49.366;8.172;2022-10-16T21:59:00;20.10;77.80
28297;DHT22;62078;49.366;8.172;2022-10-16T22:01:27;20.10;77.70
28297;DHT22;62078;49.366;8.172;2022-10-16T22:03:54;20.10;77.70
28297;DHT22;62078;49.366;8.172;2022-10-16T22:06:23;20.10;77.70
28297;DHT22;62078;49.366;8.172;2022-10-16T22:08:51;20.10;77.70
28297;DHT22;62078;49.366;8.172;2022-10-16T22:11:23;20.10;77.70
28297;DHT22;62078;49.366;8.172;2022-10-16T22:13:50;20.10;77.70
28297;DHT22;62078;49.366;8.172;2022-10-16T22:16:19;20.10;77.70
28297;DHT22;62078;49.366;8.172;2022-10-16T22:18:45;20.10;77.60
28297;DHT22;62078;49.366;8.172;2022-10-16T22:21:12;20.20;77.70
28297;DHT22;62078;49.366;8.172;2022-10-16T22:23:38;20.20;77.70
28297;DHT22;62078;49.366;8.172;2022-10-16T22:26:07;20.20;77.80
28297;DHT22;62078;49.366;8.172;2022-10-16T22:28:33;20.20;77.70
28297;DHT22;62078;49.366;8.172;2022-10-16T22:31:05;20.10;77.60
28297;DHT22;62078;49.366;8.172;2022-10-16T22:33:31;20.20;78.50
28297;DHT22;62078;49.366;8.172;2022-10-16T22:36:02;20.20;77.70
28297;DHT22;62078;49.366;8.172;2022-10-16T22:38:29;20.20;77.80
28297;DHT22;62078;49.366;8.172;2022-10-16T22:40:55;20.20;77.70
28297;DHT22;62078;49.366;8.172;2022-10-16T22:43:25;20.20;77.70
28297;DHT22;62078;49.366;8.172;2022-10-16T22:45:51;20.20;77.70
28297;DHT22;62078;49.366;8.172;2022-10-16T22:48:16;20.20;77.70
28297;DHT22;62078;49.366;8.172;2022-10-16T22:50:42;20.20;77.70
28297;DHT22;62078;49.366;8.172;2022-10-16T22:53:08;20.20;77.50
28297;DHT22;62078;49.366;8.172;2022-10-16T22:55:34;20.20;77.60
28297;DHT22;62078;49.366;8.172;2022-10-16T22:58:00;20.20;77.50
28297;DHT22;62078;49.366;8.172;2022-10-16T23:00:26;20.20;77.50
28297;DHT22;62078;49.366;8.172;2022-10-16T23:02:52;20.20;77.40
28297;DHT22;62078;49.366;8.172;2022-10-16T23:05:18;20.20;77.50